Time;durP1;ratioP1;P1;durP2;ratioP2;P2;SDS_P1;SDS_P2;PMS_P1;PMS_P2;Temp;Humidity;BMP_temperature;BMP_pressure;BME280_temperature;BME280_humidity;BME280_pressure;Samples;Min_cycle;Max_cycle;Signal;HPM_P1;HPM_P2
2022/05/30 00:00:29;;;;;;;;;;;;;;;22.77;39.40;101335.78;2068015;28;879;-60
2022/05/30 00:01:29;;;;;;;;;;;;;;;22.76;39.43;101344.81;2068071;28;780;-59
2022/05/30 00:02:29;;;;;;;;;;;;;;;22.74;39.34;101344.00;2068021;28;972;-60
2022/05/30 00:03:30;;;;;;;;;;;;;;;22.75;39.57;101340.34;2067959;28;971;-60
2022/05/30 00:04:30;;;;;;;;;;;;;;;22.74;39.36;101339.47;2067985;28;819;-59
2022/05/30 00:05:30;;;;;;;;;;;;;;;22.74;40.14;101341.28;2067999;28;971;-60
2022/05/30 00:06:30;;;;;;;;;;;;;;;22.71;39.45;101336.84;2067999;28;776;-60
2022/05/30 00:07:30;;;;;;;;;;;;;;;22.72;39.93;101340.47;2067889;28;1886;-60
2022/05/30 00:08:31;;;;;;;;;;;;;;;22.70;39.52;101340.50;2068016;28;811;-60
2022/05/30 00:09:31;;;;;;;;;;;;;;;22.72;40.21;101341.31;2067971;28;804;-60
2022/05/30 00:10:31;;;;;;;;;;;;;;;22.71;40.10;101333.28;2067926;28;859;-59
2022/05/30 00:11:31;;;;;;;;;;;;;;;22.69;40.04;101333.31;2067988;28;899;-60
2022/05/30 00:12:32;;;;;;;;;;;;;;;22.68;39.78;101339.66;2067921;28;776;-59
2022/05/30 00:13:33;;;;;;;;;;;;;;;22.68;40.32;101341.50;2067947;28;787;-60
2022/05/30 00:14:33;;;;;;;;;;;;;;;22.68;39.79;101344.19;2067917;28;843;-60
2022/05/30 00:15:33;;;;;;;;;;;;;;;22.68;40.25;101349.59;2067921;28;950;-60
2022/05/30 00:16:34;;;;;;;;;;;;;;;22.68;40.58;101341.50;2067934;28;796;-60
2022/05/30 00:17:34;;;;;;;;;;;;;;;22.64;40.17;101344.31;2070876;28;1070;-59
2022/05/30 00:18:35;;;;;;;;;;;;;;;22.64;40.00;101352.41;2076079;28;768;-60
2022/05/30 00:19:36;;;;;;;;;;;;;;;22.64;40.14;101346.13;2075968;28;922;-59
2022/05/30 00:20:36;;;;;;;;;;;;;;;22.64;39.88;101349.69;2076007;28;764;-59
2022/05/30 00:21:37;;;;;;;;;;;;;;;22.63;40.55;101342.53;2075978;28;669;-59
2022/05/30 00:22:37;;;;;;;;;;;;;;;22.63;40.71;101344.38;2076022;28;843;-59
2022/05/30 00:23:38;;;;;;;;;;;;;;;22.63;40.42;101341.66;2075923;28;800;-60
2022/05/30 00:24:38;;;;;;;;;;;;;;;22.62;40.05;101351.56;2075962;28;804;-60
2022/05/30 00:25:39;;;;;;;;;;;;;;;22.61;40.83;101347.09;2075960;28;788;-60
2022/05/30 00:26:39;;;;;;;;;;;;;;;22.61;40.96;101346.25;2075970;28;1037;-59
2022/05/30 00:27:39;;;;;;;;;;;;;;;22.61;40.35;101351.63;2075818;28;1977;-60
2022/05/30 00:28:40;;;;;;;;;;;;;;;22.59;40.98;101343.56;2075933;28;1026;-60
2022/05/30 00:29:40;;;;;;;;;;;;;;;22.60;40.44;101350.75;2075850;28;982;-60
2022/05/30 00:30:40;;;;;;;;;;;;;;;22.59;40.77;101343.56;2075917;28;893;-60
2022/05/30 00:31:40;;;;;;;;;;;;;;;22.59;40.20;101348.97;2067080;28;983;-60
2022/05/30 00:32:40;;;;;;;;;;;;;;;22.57;40.66;101348.16;2067204;28;771;-60
2022/05/30 00:33:41;;;;;;;;;;;;;;;22.58;40.22;101351.75;2067043;28;860;-60
2022/05/30 00:34:41;;;;;;;;;;;;;;;22.58;41.03;101347.22;2067007;28;1248;-59
2022/05/30 00:35:42;;;;;;;;;;;;;;;22.58;40.93;101352.59;2075851;28;982;-59
2022/05/30 00:36:42;;;;;;;;;;;;;;;22.57;41.06;101350.84;2075841;28;795;-60
2022/05/30 00:37:42;;;;;;;;;;;;;;;22.56;41.05;101349.06;2075807;28;1287;-60
2022/05/30 00:38:42;;;;;;;;;;;;;;;22.57;40.92;101347.28;2075973;28;707;-60
2022/05/30 00:39:42;;;;;;;;;;;;;;;22.55;40.41;101347.31;2067051;28;841;-59
2022/05/30 00:40:43;;;;;;;;;;;;;;;22.55;40.72;101351.84;2067144;28;807;-59
2022/05/30 00:41:43;;;;;;;;;;;;;;;22.54;41.25;101350.94;2075736;28;977;-59
2022/05/30 00:42:43;;;;;;;;;;;;;;;22.54;40.67;101350.94;2075818;28;918;-60
2022/05/30 00:43:47;;;;;;;;;;;;;;;22.54;40.94;101347.38;2075801;28;1044;-60
2022/05/30 00:44:48;;;;;;;;;;;;;;;22.53;40.40;101348.31;2075815;28;894;-59
2022/05/30 00:45:48;;;;;;;;;;;;;;;22.54;40.42;101355.47;2075732;28;1013;-60
2022/05/30 00:46:48;;;;;;;;;;;;;;;22.53;40.99;101351.00;2066969;28;1178;-60
2022/05/30 00:47:50;;;;;;;;;;;;;;;22.50;40.99;101347.47;2067053;28;1955;-59
2022/05/30 00:48:55;;;;;;;;;;;;;;;22.51;40.49;101348.34;2075758;28;785;-60
2022/05/30 00:49:56;;;;;;;;;;;;;;;22.50;41.35;101349.28;2075756;28;1041;-60
2022/05/30 00:50:59;;;;;;;;;;;;;;;22.50;41.34;101349.28;2075735;28;764;-60
2022/05/30 00:52:05;;;;;;;;;;;;;;;22.52;40.40;101351.94;2075650;28;998;-59
2022/05/30 00:53:06;;;;;;;;;;;;;;;22.50;41.11;101352.88;2075510;28;796;-59
2022/05/30 00:54:08;;;;;;;;;;;;;;;22.50;40.47;101350.19;2075683;28;903;-60
2022/05/30 00:55:10;;;;;;;;;;;;;;;22.50;40.84;101349.28;2075769;28;1053;-60
2022/05/30 00:56:11;;;;;;;;;;;;;;;22.50;41.33;101355.56;2075726;28;1826;-59
2022/05/30 00:57:20;;;;;;;;;;;;;;;22.49;41.27;101352.91;2075716;28;796;-59
2022/05/30 00:58:21;;;;;;;;;;;;;;;22.48;41.21;101352.03;2075692;28;883;-59
2022/05/30 00:59:22;;;;;;;;;;;;;;;22.49;41.39;101358.31;2075668;28;1052;-59
2022/05/30 01:00:25;;;;;;;;;;;;;;;22.48;40.64;101353.84;2075711;28;859;-59
2022/05/30 01:01:25;;;;;;;;;;;;;;;22.49;41.30;101352.91;2075674;28;803;-59
2022/05/30 01:02:27;;;;;;;;;;;;;;;22.47;40.72;101346.69;2075677;28;797;-60
2022/05/30 01:07:24;;;;;;;;;;;;;;;22.47;40.94;101346.69;2075599;28;1970;-60
2022/05/30 01:08:26;;;;;;;;;;;;;;;22.48;41.35;101348.44;2075621;28;890;-60
2022/05/30 01:09:28;;;;;;;;;;;;;;;22.46;40.98;101345.81;2075573;28;1037;-60
2022/05/30 01:10:29;;;;;;;;;;;;;;;22.46;40.89;101355.72;2075576;28;1166;-59
2022/05/30 01:11:47;;;;;;;;;;;;;;;22.46;40.77;101344.91;2075583;28;986;-60
2022/05/30 01:12:52;;;;;;;;;;;;;;;22.45;40.81;101348.53;2075600;28;1029;-60
2022/05/30 01:13:52;;;;;;;;;;;;;;;22.43;41.01;101348.59;2075569;28;874;-59
2022/05/30 01:14:52;;;;;;;;;;;;;;;22.44;41.26;101349.47;2075604;28;764;-59
2022/05/30 01:15:53;;;;;;;;;;;;;;;22.44;41.36;101349.47;2075543;28;974;-59
2022/05/30 01:16:53;;;;;;;;;;;;;;;22.43;41.54;101351.28;2075536;28;1057;-59
2022/05/30 01:17:57;;;;;;;;;;;;;;;22.44;41.57;101349.47;2075383;28;1313;-59
2022/05/30 01:19:01;;;;;;;;;;;;;;;22.44;41.50;101354.88;2075467;28;1962;-60
2022/05/30 01:20:07;;;;;;;;;;;;;;;22.43;40.83;101355.78;2075491;28;832;-60
2022/05/30 01:21:22;;;;;;;;;;;;;;;22.43;40.94;101353.09;2066760;28;911;-59
2022/05/30 01:22:29;;;;;;;;;;;;;;;22.42;41.65;101351.31;2068846;28;1038;-60
2022/05/30 01:23:58;;;;;;;;;;;;;;;22.43;41.71;101348.59;2075602;28;854;-60
2022/05/30 01:25:04;;;;;;;;;;;;;;;22.42;41.51;101354.91;2050228;29;1068;-60
2022/05/30 01:26:12;;;;;;;;;;;;;;;22.42;41.05;101351.31;2050383;29;871;-60
2022/05/30 01:27:18;;;;;;;;;;;;;;;22.41;41.47;101358.53;2050310;29;1907;-60
2022/05/30 01:28:30;;;;;;;;;;;;;;;22.41;40.96;101355.84;2050355;29;966;-60
2022/05/30 01:29:33;;;;;;;;;;;;;;;22.41;41.67;101349.53;2050405;29;1010;-59
2022/05/30 01:30:35;;;;;;;;;;;;;;;22.41;40.95;101357.66;2050301;29;878;-60
2022/05/30 01:31:35;;;;;;;;;;;;;;;22.41;40.95;101357.66;2050477;29;986;-60
2022/05/30 01:32:35;;;;;;;;;;;;;;;22.40;41.70;101354.09;2050288;29;831;-60
2022/05/30 01:33:35;;;;;;;;;;;;;;;22.40;40.90;101356.78;2050268;29;875;-59
2022/05/30 01:34:36;;;;;;;;;;;;;;;22.40;41.44;101358.56;2050299;29;986;-59
2022/05/30 01:35:36;;;;;;;;;;;;;;;22.40;41.59;101358.56;2050265;29;788;-59
2022/05/30 01:36:36;;;;;;;;;;;;;;;22.40;41.74;101356.78;2050261;29;941;-59
2022/05/30 01:37:36;;;;;;;;;;;;;;;22.39;40.89;101365.81;2050315;29;970;-59
2022/05/30 01:38:36;;;;;;;;;;;;;;;22.38;41.84;101364.03;2050277;29;744;-60
2022/05/30 01:39:36;;;;;;;;;;;;;;;22.38;41.86;101365.84;2050282;29;761;-59
2022/05/30 01:40:37;;;;;;;;;;;;;;;22.39;41.29;101370.31;2050268;29;898;-59
2022/05/30 01:41:37;;;;;;;;;;;;;;;22.38;41.39;101365.84;2050229;29;777;-59
2022/05/30 01:42:37;;;;;;;;;;;;;;;22.37;41.86;101364.97;2050214;29;932;-60
2022/05/30 01:43:37;;;;;;;;;;;;;;;22.38;41.85;101364.03;2050245;29;982;-59
2022/05/30 01:44:37;;;;;;;;;;;;;;;22.39;41.86;101364.91;2050240;29;999;-60
2022/05/30 01:45:38;;;;;;;;;;;;;;;22.38;41.04;101368.53;2050178;29;786;-59
2022/05/30 01:46:38;;;;;;;;;;;;;;;22.39;41.93;101378.41;2050214;29;879;-60
2022/05/30 01:47:38;;;;;;;;;;;;;;;22.36;41.32;101369.50;2050138;29;1965;-60
2022/05/30 01:48:38;;;;;;;;;;;;;;;22.36;42.07;101369.50;2050254;29;871;-60
2022/05/30 01:49:38;;;;;;;;;;;;;;;22.36;41.09;101369.50;2050202;29;1043;-60
2022/05/30 01:50:38;;;;;;;;;;;;;;;22.35;41.91;101367.75;2050184;29;1025;-60
2022/05/30 01:51:38;;;;;;;;;;;;;;;22.36;41.29;101369.50;2050221;29;1002;-59
2022/05/30 01:52:39;;;;;;;;;;;;;;;22.35;42.07;101370.44;2050159;29;776;-60
2022/05/30 01:53:39;;;;;;;;;;;;;;;22.35;41.31;101374.94;2050201;29;884;-59
2022/05/30 01:54:39;;;;;;;;;;;;;;;22.35;41.92;101375.84;2050149;29;891;-60
2022/05/30 01:55:39;;;;;;;;;;;;;;;22.35;42.01;101375.84;2050146;29;1054;-60
2022/05/30 01:56:39;;;;;;;;;;;;;;;22.34;41.74;101378.56;2050189;29;785;-60
2022/05/30 01:57:40;;;;;;;;;;;;;;;22.35;41.90;101374.94;2050091;29;983;-60
2022/05/30 01:58:40;;;;;;;;;;;;;;;22.35;41.36;101377.63;2050117;29;855;-59
2022/05/30 01:59:40;;;;;;;;;;;;;;;22.34;41.22;101379.47;2050061;29;999;-59
2022/05/30 02:00:40;;;;;;;;;;;;;;;22.34;41.83;101382.16;2050114;29;784;-60
2022/05/30 02:01:42;;;;;;;;;;;;;;;22.34;41.89;101371.38;2050089;29;1026;-60
2022/05/30 02:02:43;;;;;;;;;;;;;;;22.33;41.33;101374.09;2069494;28;916;-60
2022/05/30 02:03:47;;;;;;;;;;;;;;;22.33;41.81;101385.81;2074975;28;833;-60
2022/05/30 02:04:48;;;;;;;;;;;;;;;22.34;41.39;101383.97;2074582;28;872;-60
2022/05/30 02:05:48;;;;;;;;;;;;;;;22.33;41.80;101383.09;2066426;28;1403;-60
2022/05/30 02:06:48;;;;;;;;;;;;;;;22.33;41.46;101385.81;2066479;28;753;-60
2022/05/30 02:07:48;;;;;;;;;;;;;;;22.33;41.68;101391.19;2075056;28;1953;-60
2022/05/30 02:08:51;;;;;;;;;;;;;;;22.33;41.29;101393.91;2075139;28;990;-60
2022/05/30 02:09:51;;;;;;;;;;;;;;;22.33;41.37;101391.19;2075057;28;887;-59
2022/05/30 02:10:51;;;;;;;;;;;;;;;22.33;41.29;101395.69;2075165;28;1034;-59
2022/05/30 02:11:52;;;;;;;;;;;;;;;22.32;42.17;101386.72;2075149;28;869;-60
2022/05/30 02:12:52;;;;;;;;;;;;;;;22.32;41.38;101386.72;2075125;28;856;-59
2022/05/30 02:13:52;;;;;;;;;;;;;;;22.32;41.23;101389.44;2075162;28;800;-60
2022/05/30 02:14:53;;;;;;;;;;;;;;;22.33;41.34;101390.28;2075191;28;785;-60
2022/05/30 02:17:11;;;;;;;;;;;;;;;22.32;41.74;101391.22;2068963;28;693;-59
2022/05/30 02:18:11;;;;;;;;;;;;;;;22.30;41.64;101388.59;2075026;28;1394;-60
2022/05/30 02:19:12;;;;;;;;;;;;;;;22.32;42.14;101393.94;2075076;28;978;-60
2022/05/30 02:20:12;;;;;;;;;;;;;;;22.31;41.53;101387.66;2075092;28;827;-60
2022/05/30 02:21:12;;;;;;;;;;;;;;;22.31;41.49;101397.56;2075125;28;832;-60
2022/05/30 02:22:17;;;;;;;;;;;;;;;22.30;42.11;101391.28;2075033;28;994;-59
2022/05/30 02:23:17;;;;;;;;;;;;;;;22.30;41.55;101388.59;2075083;28;986;-59
2022/05/30 02:24:17;;;;;;;;;;;;;;;22.31;42.02;101398.47;2075009;28;813;-59
2022/05/30 02:25:17;;;;;;;;;;;;;;;22.30;41.38;101398.50;2075074;28;990;-60
2022/05/30 02:26:18;;;;;;;;;;;;;;;22.31;42.01;101397.56;2075052;28;807;-59
2022/05/30 02:27:18;;;;;;;;;;;;;;;22.30;41.36;101401.19;2074901;28;1977;-59
2022/05/30 02:28:18;;;;;;;;;;;;;;;22.29;42.23;101400.31;2075016;28;1033;-60
2022/05/30 02:29:19;;;;;;;;;;;;;;;22.29;41.40;101394.03;2066188;28;883;-60
2022/05/30 02:30:19;;;;;;;;;;;;;;;22.28;41.33;101398.56;2066308;28;830;-59
2022/05/30 02:31:19;;;;;;;;;;;;;;;22.29;41.46;101402.13;2074997;28;974;-60
2022/05/30 02:32:19;;;;;;;;;;;;;;;22.28;41.89;101398.56;2075115;28;848;-60
2022/05/30 02:37:16;;;;;;;;;;;;;;;22.29;41.73;101402.13;2075078;28;1346;-60
2022/05/30 02:38:16;;;;;;;;;;;;;;;22.28;41.34;101403.94;2075147;28;784;-59
2022/05/30 02:39:17;;;;;;;;;;;;;;;22.28;41.85;101398.56;2074932;28;1033;-59
2022/05/30 02:40:18;;;;;;;;;;;;;;;22.28;41.35;101387.75;2074949;28;993;-60
2022/05/30 02:41:18;;;;;;;;;;;;;;;22.27;42.27;101391.41;2074962;28;1054;-59
2022/05/30 02:42:18;;;;;;;;;;;;;;;22.27;41.74;101396.78;2074844;28;788;-60
2022/05/30 02:43:18;;;;;;;;;;;;;;;22.28;42.24;101400.34;2074946;28;982;-60
2022/05/30 02:44:19;;;;;;;;;;;;;;;22.26;41.81;101395.03;2074880;28;986;-60
2022/05/30 02:45:19;;;;;;;;;;;;;;;22.27;42.32;101395.88;2074934;28;903;-60
2022/05/30 02:46:19;;;;;;;;;;;;;;;22.26;41.61;101397.72;2066079;28;809;-60
2022/05/30 02:47:21;;;;;;;;;;;;;;;22.28;41.82;101400.34;2066101;28;1898;-60
2022/05/30 02:48:21;;;;;;;;;;;;;;;22.27;41.47;101398.59;2075019;28;824;-59
2022/05/30 02:49:21;;;;;;;;;;;;;;;22.27;42.11;101401.28;2074860;28;918;-59
2022/05/30 02:50:21;;;;;;;;;;;;;;;22.27;41.55;101398.59;2075000;28;748;-59
2022/05/30 02:51:22;;;;;;;;;;;;;;;22.26;42.11;101395.03;2074801;28;711;-59
2022/05/30 02:52:22;;;;;;;;;;;;;;;22.27;41.60;101406.69;2074989;28;1029;-59
2022/05/30 02:53:22;;;;;;;;;;;;;;;22.26;42.49;101403.13;2075102;28;731;-59
2022/05/30 02:54:23;;;;;;;;;;;;;;;22.26;41.63;101405.81;2074852;28;884;-59
2022/05/30 02:55:23;;;;;;;;;;;;;;;22.26;42.46;101408.50;2074829;28;986;-59
2022/05/30 02:56:24;;;;;;;;;;;;;;;22.26;41.57;101407.63;2074829;28;835;-59
2022/05/30 02:57:24;;;;;;;;;;;;;;;22.26;42.35;101411.22;2066068;28;895;-59
2022/05/30 02:58:25;;;;;;;;;;;;;;;22.27;42.07;101412.09;2066127;28;788;-59
2022/05/30 02:59:26;;;;;;;;;;;;;;;22.25;42.40;101409.44;2074803;28;986;-59
2022/05/30 03:00:26;;;;;;;;;;;;;;;22.25;41.63;101363.56;2074788;28;1006;-59
2022/05/30 03:01:27;;;;;;;;;;;;;;;22.25;41.63;101365.38;2074787;28;792;-59
2022/05/30 03:02:27;;;;;;;;;;;;;;;22.25;42.19;101366.28;2066043;28;805;-59
2022/05/30 03:03:27;;;;;;;;;;;;;;;22.25;42.10;101371.66;2066095;28;780;-59
2022/05/30 03:04:27;;;;;;;;;;;;;;;22.26;42.20;101365.34;2074747;28;934;-59
2022/05/30 03:05:28;;;;;;;;;;;;;;;22.26;41.49;101367.13;2074766;28;982;-59
2022/05/30 03:06:28;;;;;;;;;;;;;;;22.26;41.53;101362.63;2074709;28;768;-59
2022/05/30 03:07:29;;;;;;;;;;;;;;;22.27;41.42;101377.00;2074714;28;1938;-59
2022/05/30 03:08:29;;;;;;;;;;;;;;;22.27;42.19;101456.16;2074758;28;871;-59
2022/05/30 03:09:29;;;;;;;;;;;;;;;22.27;42.31;101433.66;2074867;28;942;-59
2022/05/30 03:10:29;;;;;;;;;;;;;;;22.26;41.96;101434.59;2074771;28;986;-59
2022/05/30 03:11:30;;;;;;;;;;;;;;;22.25;41.75;101433.72;2074715;28;1037;-59
2022/05/30 03:12:30;;;;;;;;;;;;;;;22.26;42.21;101434.59;2074752;28;859;-59
2022/05/30 03:13:30;;;;;;;;;;;;;;;22.23;42.69;101435.59;2074861;28;856;-59
2022/05/30 03:14:30;;;;;;;;;;;;;;;22.24;42.55;101439.16;2074724;28;796;-59
2022/05/30 03:15:30;;;;;;;;;;;;;;;22.24;41.83;101440.06;2065916;28;1655;-59
2022/05/30 03:16:30;;;;;;;;;;;;;;;22.23;41.78;101438.28;2066146;28;780;-60
2022/05/30 03:17:31;;;;;;;;;;;;;;;22.23;42.53;101435.59;2065930;28;1293;-59
2022/05/30 03:18:31;;;;;;;;;;;;;;;22.23;41.74;101438.28;2066153;28;887;-59
2022/05/30 03:19:31;;;;;;;;;;;;;;;22.23;42.12;101441.00;2066633;28;973;-59
2022/05/30 03:20:32;;;;;;;;;;;;;;;22.24;42.15;101439.16;2066634;28;768;-60
2022/05/30 03:21:32;;;;;;;;;;;;;;;22.22;41.80;101428.44;2066617;28;1053;-59
2022/05/30 03:22:32;;;;;;;;;;;;;;;22.22;41.89;101417.63;2066597;28;699;-59
2022/05/30 03:23:32;;;;;;;;;;;;;;;22.22;42.01;101414.94;2066618;28;871;-59
2022/05/30 03:24:32;;;;;;;;;;;;;;;22.22;41.77;101417.63;2066592;28;1025;-59
2022/05/30 03:25:33;;;;;;;;;;;;;;;22.23;42.41;101419.41;2066558;28;1061;-59
2022/05/30 03:26:33;;;;;;;;;;;;;;;22.23;41.95;101423.91;2066594;28;669;-59
2022/05/30 03:27:33;;;;;;;;;;;;;;;22.22;41.87;101425.72;2066472;28;1974;-59
2022/05/30 03:28:34;;;;;;;;;;;;;;;22.23;42.57;101429.28;2066552;28;851;-59
2022/05/30 03:29:34;;;;;;;;;;;;;;;22.23;42.84;101429.28;2066599;28;1218;-59
2022/05/30 03:30:37;;;;;;;;;;;;;;;22.22;42.65;101428.44;2066548;28;780;-59
2022/05/30 03:31:37;;;;;;;;;;;;;;;22.22;42.66;101439.22;2066562;28;832;-59
2022/05/30 03:32:37;;;;;;;;;;;;;;;22.21;42.52;101422.13;2066644;28;800;-59
2022/05/30 03:33:38;;;;;;;;;;;;;;;22.21;41.87;101423.97;2066567;28;953;-59
2022/05/30 03:34:38;;;;;;;;;;;;;;;22.23;42.37;101434.69;2065870;28;1738;-59
2022/05/30 03:35:39;;;;;;;;;;;;;;;22.21;41.87;101430.22;2066053;28;835;-59
2022/05/30 03:36:39;;;;;;;;;;;;;;;22.22;42.34;101433.81;2066583;28;776;-59
2022/05/30 03:37:40;;;;;;;;;;;;;;;22.23;41.95;101440.09;2066524;28;831;-59
2022/05/30 03:38:41;;;;;;;;;;;;;;;22.21;42.51;101441.03;2066524;28;994;-59
2022/05/30 03:39:41;;;;;;;;;;;;;;;22.21;41.92;101443.72;2066591;28;796;-59
2022/05/30 03:40:41;;;;;;;;;;;;;;;22.22;41.93;101444.63;2066523;28;892;-59
2022/05/30 03:41:41;;;;;;;;;;;;;;;22.21;42.65;101445.56;2066570;28;824;-59
2022/05/30 03:42:42;;;;;;;;;;;;;;;22.21;42.74;101438.31;2066497;28;1035;-59
2022/05/30 03:43:42;;;;;;;;;;;;;;;22.22;42.15;101441.94;2066514;28;869;-59
2022/05/30 03:44:42;;;;;;;;;;;;;;;22.22;42.60;101447.31;2066503;28;843;-59
2022/05/30 03:45:43;;;;;;;;;;;;;;;22.21;42.22;101443.72;2066551;28;1040;-59
2022/05/30 03:46:43;;;;;;;;;;;;;;;22.21;42.56;101440.16;2066577;28;776;-59
2022/05/30 03:47:44;;;;;;;;;;;;;;;22.21;42.28;101443.72;2066412;28;1890;-59
2022/05/30 03:48:45;;;;;;;;;;;;;;;22.20;42.67;101433.84;2066496;28;863;-59
2022/05/30 03:49:45;;;;;;;;;;;;;;;22.20;42.88;101439.25;2065787;28;1323;-59
2022/05/30 03:50:45;;;;;;;;;;;;;;;22.21;42.22;101437.47;2065954;28;963;-59
2022/05/30 03:51:45;;;;;;;;;;;;;;;22.20;42.18;101441.09;2066477;28;782;-59
2022/05/30 03:52:46;;;;;;;;;;;;;;;22.21;42.61;101437.47;2066512;28;761;-59
2022/05/30 03:53:46;;;;;;;;;;;;;;;22.21;42.78;101445.56;2066475;28;1040;-59
2022/05/30 03:54:46;;;;;;;;;;;;;;;22.20;42.15;101441.94;2066501;28;781;-59
2022/05/30 03:55:46;;;;;;;;;;;;;;;22.19;42.72;101437.50;2066430;28;1022;-59
2022/05/30 03:56:46;;;;;;;;;;;;;;;22.19;42.26;101442.00;2066452;28;784;-59
2022/05/30 03:57:47;;;;;;;;;;;;;;;22.20;42.53;101439.25;2066423;28;872;-59
2022/05/30 03:58:47;;;;;;;;;;;;;;;22.20;43.02;101450.03;2066498;28;780;-59
2022/05/30 03:59:48;;;;;;;;;;;;;;;22.19;42.80;101442.00;2066441;28;986;-59
2022/05/30 04:00:48;;;;;;;;;;;;;;;22.19;42.91;101409.63;2066437;28;875;-59
2022/05/30 04:01:48;;;;;;;;;;;;;;;22.55;42.42;101446.34;2066441;28;764;-59
2022/05/30 04:02:48;;;;;;;;;;;;;;;23.68;39.72;101404.59;2066521;28;874;-59
2022/05/30 04:03:49;;;;;;;;;;;;;;;24.37;37.38;101408.28;2066562;28;990;-58
2022/05/30 04:04:49;;;;;;;;;;;;;;;24.89;36.70;101443.19;2066371;28;934;-59
2022/05/30 04:05:49;;;;;;;;;;;;;;;25.38;35.41;101444.69;2066442;28;831;-59
2022/05/30 04:06:49;;;;;;;;;;;;;;;25.73;35.22;101445.00;2066472;28;839;-58
2022/05/30 04:07:49;;;;;;;;;;;;;;;26.03;34.42;101439.06;2066341;28;1890;-60
2022/05/30 04:08:49;;;;;;;;;;;;;;;26.29;33.32;101445.13;2066443;28;1041;-59
2022/05/30 04:09:49;;;;;;;;;;;;;;;26.52;33.35;101460.28;2066411;28;990;-58
2022/05/30 04:10:50;;;;;;;;;;;;;;;26.62;32.57;101464.31;2066428;28;828;-59
2022/05/30 04:11:50;;;;;;;;;;;;;;;26.58;32.72;101472.69;2066399;28;853;-58
2022/05/30 04:12:50;;;;;;;;;;;;;;;26.71;32.28;101467.53;2066401;28;1053;-59
2022/05/30 04:13:50;;;;;;;;;;;;;;;26.93;32.49;101470.97;2066425;28;1013;-59
2022/05/30 04:14:54;;;;;;;;;;;;;;;27.04;31.91;101467.72;2065678;28;1288;-59
2022/05/30 04:15:55;;;;;;;;;;;;;;;27.22;32.28;101457.72;2066244;28;879;-59
2022/05/30 04:16:55;;;;;;;;;;;;;;;27.44;31.07;101456.56;2073980;28;1052;-59
2022/05/30 04:17:55;;;;;;;;;;;;;;;27.67;30.89;101447.19;2072155;28;1154;-59
2022/05/30 04:18:56;;;;;;;;;;;;;;;28.04;30.25;101446.13;2074533;28;1185;-59
2022/05/30 04:19:56;;;;;;;;;;;;;;;27.92;30.61;101443.13;2074499;28;990;-59
2022/05/30 04:20:56;;;;;;;;;;;;;;;28.08;29.69;101445.88;2074484;28;923;-59
2022/05/30 04:21:57;;;;;;;;;;;;;;;28.33;29.38;101455.41;2074391;28;1018;-59
2022/05/30 04:22:57;;;;;;;;;;;;;;;28.47;29.68;101449.16;2074501;28;1049;-59
2022/05/30 04:23:57;;;;;;;;;;;;;;;28.52;29.09;101455.22;2074438;28;847;-59
2022/05/30 04:24:57;;;;;;;;;;;;;;;28.43;29.18;101453.03;2074459;28;796;-59
2022/05/30 04:25:57;;;;;;;;;;;;;;;28.59;29.62;101452.16;2074443;28;839;-59
2022/05/30 04:26:58;;;;;;;;;;;;;;;28.69;29.43;101459.69;2074452;28;1061;-59
2022/05/30 04:27:58;;;;;;;;;;;;;;;28.79;28.91;101465.53;2075366;28;1980;-59
2022/05/30 04:28:58;;;;;;;;;;;;;;;28.84;29.27;101463.41;2075929;28;796;-59
2022/05/30 04:29:58;;;;;;;;;;;;;;;29.15;28.81;101457.94;2075928;28;867;-59
2022/05/30 04:30:59;;;;;;;;;;;;;;;29.34;28.15;101463.19;2075884;28;993;-59
2022/05/30 04:31:59;;;;;;;;;;;;;;;29.42;28.22;101465.44;2076101;28;818;-60
2022/05/30 04:33:00;;;;;;;;;;;;;;;29.57;27.99;101460.88;2075916;28;970;-59
2022/05/30 04:34:00;;;;;;;;;;;;;;;29.41;28.65;101464.59;2075909;28;852;-60
2022/05/30 04:35:01;;;;;;;;;;;;;;;29.30;28.16;101464.34;2075894;28;823;-60
2022/05/30 04:36:03;;;;;;;;;;;;;;;29.49;28.57;101461.38;2075799;28;1302;-60
2022/05/30 04:37:04;;;;;;;;;;;;;;;29.65;28.00;101463.16;2067038;28;1229;-59
2022/05/30 04:38:04;;;;;;;;;;;;;;;29.79;27.86;101465.88;2067207;28;1039;-59
2022/05/30 04:39:04;;;;;;;;;;;;;;;29.93;27.43;101465.00;2067093;28;1489;-59
2022/05/30 04:40:05;;;;;;;;;;;;;;;30.07;27.49;101461.41;2067171;28;962;-59
2022/05/30 04:41:05;;;;;;;;;;;;;;;30.12;27.45;101461.09;2075727;28;1170;-59
2022/05/30 04:42:06;;;;;;;;;;;;;;;30.10;27.26;101476.72;2075825;28;887;-59
2022/05/30 04:43:06;;;;;;;;;;;;;;;30.02;27.75;101464.47;2075807;28;998;-59
2022/05/30 04:44:06;;;;;;;;;;;;;;;30.27;26.94;101467.44;2075790;28;1037;-60
2022/05/30 04:45:07;;;;;;;;;;;;;;;30.21;27.13;101471.44;2075791;28;872;-59
2022/05/30 04:46:07;;;;;;;;;;;;;;;30.16;27.21;101477.22;2075749;28;985;-59
2022/05/30 04:47:10;;;;;;;;;;;;;;;30.20;27.64;101469.69;2075789;28;1006;-60
2022/05/30 04:48:10;;;;;;;;;;;;;;;30.11;26.97;101481.19;2075721;28;1894;-60
2022/05/30 04:49:10;;;;;;;;;;;;;;;30.17;27.35;101473.50;2075799;28;856;-60
2022/05/30 04:50:14;;;;;;;;;;;;;;;30.36;27.26;101477.75;2075797;28;883;-59
2022/05/30 04:51:14;;;;;;;;;;;;;;;30.57;26.94;101478.25;2075756;28;792;-59
2022/05/30 04:52:14;;;;;;;;;;;;;;;30.78;26.63;101475.03;2075706;28;1029;-58
2022/05/30 04:53:14;;;;;;;;;;;;;;;30.84;27.04;101484.69;2075723;28;773;-59
2022/05/30 04:54:14;;;;;;;;;;;;;;;30.90;26.62;101481.53;2075716;28;978;-59
2022/05/30 04:55:15;;;;;;;;;;;;;;;30.96;26.56;101475.63;2075760;28;831;-59
2022/05/30 04:56:17;;;;;;;;;;;;;;;31.08;26.12;101484.88;2075687;28;902;-59
2022/05/30 04:57:17;;;;;;;;;;;;;;;31.01;26.37;101483.53;2075752;28;846;-59
2022/05/30 04:58:17;;;;;;;;;;;;;;;31.00;26.35;101479.03;2075674;28;903;-59
2022/05/30 04:59:18;;;;;;;;;;;;;;;31.17;26.08;101481.53;2075820;28;726;-59
2022/05/30 05:00:19;;;;;;;;;;;;;;;31.28;25.82;101480.78;2075693;28;788;-59
2022/05/30 05:01:20;;;;;;;;;;;;;;;31.29;25.65;101490.75;2075627;28;958;-59
2022/05/30 05:02:20;;;;;;;;;;;;;;;31.31;25.79;101490.63;2075655;28;1045;-59
2022/05/30 05:03:20;;;;;;;;;;;;;;;31.28;26.20;101490.84;2075808;28;1041;-59
2022/05/30 05:04:20;;;;;;;;;;;;;;;31.39;25.22;101495.59;2075636;28;832;-59
2022/05/30 05:05:21;;;;;;;;;;;;;;;31.44;25.68;101494.25;2075655;28;902;-59
2022/05/30 05:06:21;;;;;;;;;;;;;;;31.62;25.30;101494.81;2075681;28;855;-59
2022/05/30 05:07:21;;;;;;;;;;;;;;;31.59;25.45;101492.28;2075570;28;1910;-59
2022/05/30 05:08:24;;;;;;;;;;;;;;;31.62;25.43;101493.97;2075721;28;899;-59
2022/05/30 05:09:28;;;;;;;;;;;;;;;31.59;25.26;101492.28;2075581;28;974;-60
2022/05/30 05:10:28;;;;;;;;;;;;;;;31.56;25.25;101488.91;2075579;28;775;-59
2022/05/30 05:11:30;;;;;;;;;;;;;;;31.64;25.42;101494.72;2075608;28;878;-59
2022/05/30 05:12:30;;;;;;;;;;;;;;;31.68;25.11;101484.41;2075651;28;733;-59
2022/05/30 05:13:30;;;;;;;;;;;;;;;31.61;25.21;101484.84;2075578;28;764;-59
2022/05/30 05:14:30;;;;;;;;;;;;;;;31.74;25.01;101478.53;2075536;28;887;-59
2022/05/30 05:15:30;;;;;;;;;;;;;;;31.71;25.14;101471.41;2075569;28;1017;-59
2022/05/30 05:16:30;;;;;;;;;;;;;;;31.88;24.62;101481.16;2075569;28;985;-59
2022/05/30 05:17:31;;;;;;;;;;;;;;;31.85;24.67;101480.50;2066698;28;1389;-60
2022/05/30 05:18:31;;;;;;;;;;;;;;;31.74;24.67;101479.44;2066781;28;1017;-60
2022/05/30 05:19:32;;;;;;;;;;;;;;;31.89;24.58;101479.28;2066885;28;822;-59
2022/05/30 05:20:37;;;;;;;;;;;;;;;31.82;24.73;101480.72;2075593;28;943;-59
2022/05/30 05:21:39;;;;;;;;;;;;;;;31.82;24.73;101478.88;2075525;28;781;-59
2022/05/30 05:22:39;;;;;;;;;;;;;;;31.86;24.96;101479.50;2075408;28;1972;-59
2022/05/30 05:23:39;;;;;;;;;;;;;;;31.74;25.00;101481.28;2075533;28;941;-60
2022/05/30 05:24:39;;;;;;;;;;;;;;;31.86;24.94;101488.63;2075502;28;1005;-59
2022/05/30 05:25:40;;;;;;;;;;;;;;;31.96;24.67;101480.59;2075515;28;1162;-59
2022/05/30 05:26:44;;;;;;;;;;;;;;;32.02;24.21;101485.63;2075516;28;867;-59
2022/05/30 05:27:47;;;;;;;;;;;;;;;31.86;24.60;101487.72;2075543;28;1903;-59
2022/05/30 05:28:48;;;;;;;;;;;;;;;31.81;24.69;101496.28;2066666;28;1364;-59